createdAt,value
2022-11-22T00:00:39.737Z,15.85
2022-11-22T00:03:06.885Z,20.35
2022-11-22T00:05:34.217Z,15.95
2022-11-22T00:08:01.038Z,17.42
2022-11-22T00:10:27.986Z,17.25
2022-11-22T00:12:54.919Z,19.38
2022-11-22T00:15:21.795Z,15.77
2022-11-22T00:17:48.719Z,18.25
2022-11-22T00:20:15.861Z,16.50
2022-11-22T00:22:44.750Z,17.88
2022-11-22T00:25:12.602Z,15.90
2022-11-22T00:27:39.885Z,18.33
2022-11-22T00:30:07.847Z,17.77
2022-11-22T00:32:34.815Z,20.70
2022-11-22T00:35:01.693Z,16.85
2022-11-22T00:37:28.599Z,16.35
2022-11-22T00:39:55.465Z,17.92
2022-11-22T00:42:22.369Z,16.65
2022-11-22T00:44:49.248Z,15.27
2022-11-22T00:47:16.157Z,16.23
2022-11-22T00:49:43.197Z,17.85
2022-11-22T00:52:10.048Z,18.00
2022-11-22T00:54:36.935Z,15.15
2022-11-22T00:57:03.802Z,18.42
2022-11-22T00:59:30.959Z,16.98
2022-11-22T01:01:58.142Z,16.45
2022-11-22T01:04:25.019Z,17.08
2022-11-22T01:06:51.888Z,16.52
2022-11-22T01:09:21.906Z,19.08
2022-11-22T01:11:48.888Z,19.10
2022-11-22T01:14:16.609Z,17.75
2022-11-22T01:16:43.896Z,18.23
2022-11-22T01:19:11.268Z,15.80
2022-11-22T01:21:38.832Z,16.98
2022-11-22T01:24:06.061Z,18.90
2022-11-22T01:26:33.842Z,16.92
2022-11-22T01:29:00.756Z,17.55
2022-11-22T01:31:27.765Z,20.13
2022-11-22T01:33:54.644Z,16.67
2022-11-22T01:36:21.645Z,15.52
2022-11-22T01:38:48.503Z,17.83
2022-11-22T01:41:15.412Z,17.45
2022-11-22T01:43:42.301Z,17.85
2022-11-22T01:46:39.532Z,16.48
2022-11-22T01:49:30.723Z,17.02
2022-11-22T01:52:07.505Z,15.57
2022-11-22T01:54:38.494Z,16.50
2022-11-22T01:57:10.829Z,14.18
2022-11-22T01:59:42.148Z,16.23
2022-11-22T02:02:09.049Z,19.73
2022-11-22T02:04:37.595Z,17.23
2022-11-22T02:07:11.057Z,16.23
2022-11-22T02:09:40.794Z,19.85
2022-11-22T02:12:09.958Z,16.30
2022-11-22T02:14:38.495Z,14.20
2022-11-22T02:17:05.390Z,16.80
2022-11-22T02:19:46.418Z,16.10
2022-11-22T02:22:20.056Z,14.35
2022-11-22T02:25:19.786Z,19.02
2022-11-22T02:27:47.051Z,16.52
2022-11-22T02:30:13.997Z,18.83
2022-11-22T02:32:40.871Z,13.70
2022-11-22T02:35:20.057Z,14.88
2022-11-22T02:37:51.471Z,11.95
2022-11-22T02:40:20.170Z,15.45
2022-11-22T02:42:56.321Z,14.70
2022-11-22T02:45:23.187Z,15.43
2022-11-22T02:47:50.077Z,16.23
2022-11-22T02:50:17.076Z,15.40
2022-11-22T02:52:43.973Z,13.55
2022-11-22T02:55:10.904Z,14.05
2022-11-22T02:57:37.770Z,12.15
2022-11-22T03:00:05.261Z,14.93
2022-11-22T03:02:32.126Z,11.05
2022-11-22T03:04:58.945Z,16.90
2022-11-22T03:07:25.841Z,15.10
2022-11-22T03:09:52.792Z,15.95
2022-11-22T03:12:19.710Z,13.30
2022-11-22T03:14:46.645Z,11.70
2022-11-22T03:17:16.186Z,13.15
2022-11-22T03:19:43.019Z,14.07
2022-11-22T03:22:11.457Z,12.98
2022-11-22T03:24:38.604Z,12.35
2022-11-22T03:27:05.611Z,11.02
2022-11-22T03:29:35.208Z,12.88
2022-11-22T03:32:02.194Z,14.25
2022-11-22T03:34:29.205Z,12.43
2022-11-22T03:36:56.138Z,10.05
2022-11-22T03:39:23.025Z,11.18
2022-11-22T03:41:51.162Z,11.82
2022-11-22T03:44:18.037Z,9.38
2022-11-22T03:46:45.101Z,12.63
2022-11-22T03:49:12.254Z,13.20
2022-11-22T03:51:39.346Z,15.00
2022-11-22T03:54:06.227Z,14.90
2022-11-22T03:56:33.193Z,11.07
2022-11-22T03:59:00.173Z,11.63
2022-11-22T04:01:27.129Z,11.07
2022-11-22T04:03:54.059Z,10.77
2022-11-22T04:06:21.024Z,9.60
2022-11-22T04:08:48.004Z,13.10
2022-11-22T04:11:14.927Z,12.00
2022-11-22T04:14:00.362Z,11.00
2022-11-22T04:16:27.256Z,14.30
2022-11-22T04:18:56.472Z,13.27
2022-11-22T04:21:35.467Z,13.60
2022-11-22T04:24:28.994Z,11.68
2022-11-22T04:26:56.744Z,11.25
2022-11-22T04:29:24.367Z,12.48
2022-11-22T04:32:10.635Z,11.85
2022-11-22T04:34:37.906Z,10.15
2022-11-22T04:37:06.062Z,12.40
2022-11-22T04:39:33.456Z,11.32
2022-11-22T04:42:18.976Z,10.18
2022-11-22T04:44:46.303Z,17.15
2022-11-22T04:47:38.933Z,8.85
2022-11-22T04:50:28.115Z,10.75
2022-11-22T04:52:57.814Z,9.15
2022-11-22T04:55:24.918Z,10.60
2022-11-22T04:57:56.082Z,13.38
2022-11-22T05:00:27.621Z,10.25
2022-11-22T05:02:54.615Z,11.73
2022-11-22T05:05:21.618Z,11.52
2022-11-22T05:07:48.642Z,14.95
2022-11-22T05:10:16.694Z,12.75
2022-11-22T05:12:45.155Z,21.65
2022-11-22T05:15:12.407Z,11.63
2022-11-22T05:17:39.750Z,15.13
2022-11-22T05:20:08.204Z,11.13
2022-11-22T05:22:54.513Z,10.20
2022-11-22T05:25:25.514Z,13.10
2022-11-22T05:28:00.421Z,11.88
2022-11-22T05:30:29.432Z,12.43
2022-11-22T05:32:56.509Z,12.77
2022-11-22T05:35:23.623Z,11.80
2022-11-22T05:37:50.576Z,10.95
2022-11-22T05:40:17.568Z,11.27
2022-11-22T05:42:44.526Z,10.45
2022-11-22T05:45:11.545Z,10.32
2022-11-22T05:47:38.679Z,12.55
2022-11-22T05:50:06.091Z,11.05
2022-11-22T05:52:33.150Z,10.98
2022-11-22T05:55:00.070Z,9.25
2022-11-22T05:57:27.792Z,12.05
2022-11-22T05:59:55.074Z,11.18
2022-11-22T06:02:22.110Z,14.07
2022-11-22T06:04:49.190Z,10.80
2022-11-22T06:07:16.249Z,8.93
2022-11-22T06:09:43.200Z,10.85
2022-11-22T06:12:10.151Z,11.63
2022-11-22T06:14:42.999Z,17.33
2022-11-22T06:17:10.606Z,12.60
2022-11-22T06:19:37.619Z,8.82
2022-11-22T06:22:04.526Z,14.38
2022-11-22T06:24:31.405Z,11.43
2022-11-22T06:26:58.277Z,9.68
2022-11-22T06:29:25.262Z,10.45
2022-11-22T06:31:52.177Z,10.07
2022-11-22T06:34:19.101Z,12.85
2022-11-22T06:36:46.669Z,7.20
2022-11-22T06:39:13.743Z,10.48
2022-11-22T06:41:40.925Z,9.38
2022-11-22T06:44:09.688Z,8.75
2022-11-22T06:46:37.322Z,8.75
2022-11-22T06:49:04.915Z,8.98
2022-11-22T06:51:34.338Z,8.93
2022-11-22T06:54:01.364Z,9.47
2022-11-22T06:56:39.245Z,8.73
2022-11-22T06:59:07.821Z,7.75
2022-11-22T07:01:36.223Z,8.18
2022-11-22T07:04:04.720Z,10.73
2022-11-22T07:06:37.395Z,13.18
2022-11-22T07:09:06.961Z,11.32
2022-11-22T07:11:34.964Z,10.80
2022-11-22T07:14:08.357Z,9.23
2022-11-22T07:16:37.692Z,14.57
2022-11-22T07:19:05.801Z,9.85
2022-11-22T07:21:32.997Z,9.82
2022-11-22T07:24:00.346Z,9.77
2022-11-22T07:26:28.915Z,10.93
2022-11-22T07:29:01.886Z,10.63
2022-11-22T07:31:32.453Z,8.48
2022-11-22T07:33:59.665Z,8.85
2022-11-22T07:36:29.762Z,8.32
2022-11-22T07:38:57.154Z,10.70
2022-11-22T07:41:24.378Z,9.52
2022-11-22T07:43:53.207Z,10.10
2022-11-22T07:46:26.367Z,10.18
2022-11-22T07:48:56.209Z,13.13
2022-11-22T07:51:23.148Z,12.90
2022-11-22T07:53:50.665Z,11.88
2022-11-22T07:56:18.240Z,9.10
2022-11-22T07:58:48.520Z,9.90
2022-11-22T08:03:54.499Z,8.77
2022-11-22T08:06:21.414Z,6.28
2022-11-22T08:08:50.923Z,11.02
2022-11-22T08:11:17.959Z,9.10
2022-11-22T08:13:45.213Z,8.40
2022-11-22T08:16:16.150Z,10.40
2022-11-22T08:18:47.774Z,8.48
2022-11-22T08:21:15.044Z,8.48
2022-11-22T08:23:43.266Z,7.05
2022-11-22T08:26:13.204Z,10.13
2022-11-22T08:28:44.419Z,10.07
2022-11-22T08:31:14.983Z,11.57
2022-11-22T08:33:48.873Z,10.55
2022-11-22T08:36:18.352Z,8.45
2022-11-22T08:38:47.149Z,8.20
2022-11-22T08:41:18.207Z,8.15
2022-11-22T08:43:45.453Z,14.07
2022-11-22T08:46:13.016Z,7.45
2022-11-22T08:48:48.457Z,7.65
2022-11-22T08:51:23.462Z,7.03
2022-11-22T08:54:37.339Z,10.68
2022-11-22T09:00:37.951Z,10.85
2022-11-22T09:09:39.984Z,10.18
2022-11-22T09:12:27.748Z,10.25
2022-11-22T09:15:03.364Z,9.43
2022-11-22T09:17:34.460Z,7.13
2022-11-22T09:20:09.825Z,14.18
2022-11-22T09:22:40.596Z,13.50
2022-11-22T09:25:14.715Z,8.43
2022-11-22T09:27:49.857Z,9.90
2022-11-22T09:30:31.752Z,9.43
2022-11-22T09:33:10.531Z,14.05
2022-11-22T09:35:40.685Z,11.55
2022-11-22T09:38:20.961Z,7.32
2022-11-22T09:40:55.460Z,12.10
2022-11-22T09:43:57.554Z,5.88
2022-11-22T09:46:38.481Z,18.13
2022-11-22T09:49:35.332Z,14.52
2022-11-22T09:52:27.240Z,12.50
2022-11-22T09:55:03.584Z,21.45
2022-11-22T09:57:51.844Z,17.58
2022-11-22T10:00:37.404Z,20.83
2022-11-22T10:03:22.058Z,15.32
2022-11-22T10:06:12.620Z,8.45
2022-11-22T10:09:29.678Z,15.02
2022-11-22T10:13:11.345Z,10.82
2022-11-22T10:16:18.248Z,6.78
2022-11-22T10:19:24.467Z,11.90
2022-11-22T10:21:51.590Z,10.80
2022-11-22T10:27:28.596Z,12.10
2022-11-22T10:34:13.009Z,8.70
2022-11-22T10:37:46.154Z,10.10
2022-11-22T10:43:38.342Z,7.00
2022-11-22T10:46:10.929Z,8.98
2022-11-22T10:48:51.193Z,7.13
2022-11-22T10:51:44.697Z,9.00
2022-11-22T10:54:24.900Z,11.40
2022-11-22T10:56:51.877Z,20.40
2022-11-22T10:59:43.032Z,11.18
2022-11-22T11:02:09.906Z,10.80
2022-11-22T11:04:40.883Z,11.73
2022-11-22T11:07:15.603Z,15.00
2022-11-22T11:12:56.830Z,9.43
2022-11-22T11:15:30.628Z,10.27
2022-11-22T11:18:01.925Z,9.23
2022-11-22T11:20:37.627Z,6.93
2022-11-22T11:23:20.199Z,9.45
2022-11-22T11:25:48.783Z,11.30
2022-11-22T11:28:27.652Z,9.10
2022-11-22T11:31:01.327Z,9.75
2022-11-22T11:33:31.281Z,9.18
2022-11-22T11:36:23.434Z,13.63
2022-11-22T11:38:56.146Z,17.08
2022-11-22T11:41:31.694Z,15.75
2022-11-22T11:44:04.735Z,12.88
2022-11-22T11:46:40.649Z,7.05
2022-11-22T11:49:17.534Z,8.70
2022-11-22T11:51:45.601Z,9.68
2022-11-22T11:54:28.178Z,9.30
2022-11-22T11:56:59.866Z,14.07
2022-11-22T11:59:40.807Z,13.55
2022-11-22T12:02:28.154Z,8.30
2022-11-22T12:05:05.284Z,9.18
2022-11-22T12:07:44.709Z,23.02
2022-11-22T12:10:30.576Z,10.02
2022-11-22T12:13:04.885Z,8.63
2022-11-22T12:15:47.242Z,9.18
2022-11-22T12:18:38.875Z,10.02
2022-11-22T12:21:39.140Z,12.60
2022-11-22T12:24:48.411Z,11.25
2022-11-22T12:27:15.003Z,11.35
2022-11-22T12:29:44.591Z,10.23
2022-11-22T12:32:27.583Z,10.27
2022-11-22T12:35:03.476Z,11.05
2022-11-22T12:37:39.176Z,10.13
2022-11-22T12:40:16.676Z,10.02
2022-11-22T12:42:56.050Z,13.65
2022-11-22T12:45:36.424Z,8.53
2022-11-22T12:48:26.306Z,11.20
2022-11-22T12:50:56.109Z,10.80
2022-11-22T12:53:36.452Z,10.70
2022-11-22T12:59:15.615Z,6.93
2022-11-22T13:01:42.531Z,20.42
2022-11-22T13:04:09.391Z,4.90
2022-11-22T13:06:57.016Z,14.75
2022-11-22T13:09:29.630Z,16.20
2022-11-22T13:12:02.910Z,13.75
2022-11-22T13:14:50.016Z,11.07
2022-11-22T13:17:18.154Z,15.38
2022-11-22T13:19:55.640Z,7.43
2022-11-22T13:22:49.866Z,9.60
2022-11-22T13:25:35.518Z,8.98
2022-11-22T13:28:25.510Z,7.10
2022-11-22T13:31:12.947Z,11.95
2022-11-22T13:33:55.024Z,7.57
2022-11-22T13:36:27.824Z,6.57
2022-11-22T13:38:57.335Z,9.07
2022-11-22T13:41:46.122Z,9.47
2022-11-22T13:44:26.951Z,8.55
2022-11-22T13:47:00.506Z,10.23
2022-11-22T13:49:38.291Z,10.63
2022-11-22T13:52:12.789Z,10.10
2022-11-22T13:55:01.567Z,9.52
2022-11-22T13:57:40.198Z,10.95
2022-11-22T14:00:14.159Z,10.52
2022-11-22T14:02:47.041Z,7.90
2022-11-22T14:05:41.037Z,5.90
2022-11-22T14:08:28.592Z,9.65
2022-11-22T14:10:55.684Z,18.83
2022-11-22T14:13:35.028Z,6.53
2022-11-22T14:16:04.832Z,9.32
2022-11-22T14:18:55.825Z,12.52
2022-11-22T14:21:46.455Z,5.97
2022-11-22T14:24:28.874Z,8.80
2022-11-22T14:27:23.725Z,7.80
2022-11-22T14:30:15.147Z,12.35
2022-11-22T14:32:54.328Z,5.53
2022-11-22T14:35:29.457Z,11.13
2022-11-22T14:38:05.607Z,9.23
2022-11-22T14:40:40.504Z,11.88
2022-11-22T14:43:17.070Z,11.05
2022-11-22T14:45:52.651Z,15.88
2022-11-22T14:48:26.076Z,8.77
2022-11-22T14:51:07.083Z,6.75
2022-11-22T14:53:34.639Z,8.50
2022-11-22T14:56:18.152Z,13.27
2022-11-22T14:59:00.685Z,10.07
2022-11-22T15:01:46.445Z,8.13
2022-11-22T15:09:16.277Z,6.35
2022-11-22T15:09:20.359Z,6.70
2022-11-22T15:11:03.813Z,2.92
2022-11-22T15:13:45.834Z,7.72
2022-11-22T15:59:43.215Z,17.05
2022-11-22T16:02:26.125Z,8.18
2022-11-22T16:06:05.401Z,9.60
2022-11-22T16:07:49.734Z,12.60
2022-11-22T16:10:19.952Z,4.75
2022-11-22T16:12:47.065Z,5.38
2022-11-22T16:15:38.087Z,7.47
2022-11-22T16:18:26.070Z,8.48
2022-11-22T16:21:12.398Z,10.43
2022-11-22T16:23:40.977Z,8.40
2022-11-22T16:26:24.716Z,9.85
2022-11-22T16:28:56.107Z,7.20
2022-11-22T16:31:27.527Z,7.55
2022-11-22T16:33:56.182Z,8.57
2022-11-22T16:36:25.066Z,10.23
2022-11-22T16:38:51.939Z,5.90
2022-11-22T16:41:21.732Z,8.13
2022-11-22T16:44:12.935Z,5.53
2022-11-22T16:46:40.779Z,10.07
2022-11-22T16:49:22.423Z,6.28
2022-11-22T16:51:50.735Z,9.48
2022-11-22T16:54:19.721Z,8.45
2022-11-22T16:56:47.708Z,10.20
2022-11-22T16:59:14.620Z,8.50
2022-11-22T17:01:44.900Z,8.07
2022-11-22T17:06:45.980Z,9.45
2022-11-22T17:09:13.184Z,7.90
2022-11-22T17:11:41.127Z,8.63
2022-11-22T17:14:14.626Z,9.20
2022-11-22T17:16:42.562Z,9.95
2022-11-22T17:19:19.103Z,7.78
2022-11-22T17:21:57.224Z,15.48
2022-11-22T17:24:24.290Z,16.08
2022-11-22T17:26:51.469Z,9.05
2022-11-22T17:29:43.381Z,8.05
2022-11-22T17:32:05.733Z,8.57
2022-11-22T17:34:33.242Z,4.18
2022-11-22T17:37:00.410Z,7.03
2022-11-22T17:39:27.435Z,12.30
2022-11-22T17:41:54.297Z,9.93
2022-11-22T17:44:21.897Z,6.68
2022-11-22T17:46:48.782Z,7.60
2022-11-22T17:49:16.594Z,8.93
2022-11-22T17:51:47.042Z,4.57
2022-11-22T17:54:14.068Z,14.23
2022-11-22T17:56:41.142Z,9.77
2022-11-22T17:59:08.070Z,5.40
2022-11-22T18:01:36.975Z,13.20
2022-11-22T18:04:04.110Z,10.55
2022-11-22T18:06:31.465Z,5.28
2022-11-22T18:08:58.916Z,11.32
2022-11-22T18:11:25.865Z,7.90
2022-11-22T18:13:52.795Z,12.57
2022-11-22T18:16:19.810Z,16.77
2022-11-22T18:19:02.586Z,6.43
2022-11-22T18:21:31.019Z,5.78
2022-11-22T18:23:59.094Z,13.30
2022-11-22T18:26:42.507Z,10.48
2022-11-22T18:29:41.745Z,8.50
2022-11-22T18:32:00.413Z,13.95
2022-11-22T18:34:28.182Z,9.55
2022-11-22T18:37:01.499Z,13.27
2022-11-22T18:39:32.002Z,7.90
2022-11-22T18:41:59.249Z,5.32
2022-11-22T18:44:26.205Z,16.42
2022-11-22T18:46:53.167Z,10.88
2022-11-22T18:49:20.024Z,8.43
2022-11-22T18:51:46.952Z,12.25
2022-11-22T18:54:14.465Z,11.18
2022-11-22T18:56:41.365Z,6.07
2022-11-22T18:59:12.507Z,7.90
2022-11-22T19:01:40.054Z,5.40
2022-11-22T19:04:07.456Z,16.20
2022-11-22T19:06:34.574Z,13.68
2022-11-22T19:09:02.422Z,6.45
2022-11-22T19:11:32.162Z,9.95
2022-11-22T19:13:59.443Z,8.63
2022-11-22T19:16:30.430Z,9.07
2022-11-22T19:18:58.683Z,8.13
2022-11-22T19:21:28.130Z,8.52
2022-11-22T19:23:56.403Z,16.73
2022-11-22T19:26:26.090Z,13.02
2022-11-22T19:28:57.860Z,13.50
2022-11-22T19:31:29.259Z,5.20
2022-11-22T19:33:56.730Z,4.78
2022-11-22T19:36:32.856Z,7.97
2022-11-22T19:39:01.332Z,6.22
2022-11-22T19:41:28.363Z,12.40
2022-11-22T19:43:56.731Z,7.53
2022-11-22T19:46:24.856Z,8.20
2022-11-22T19:48:53.344Z,4.20
2022-11-22T19:51:20.802Z,11.20
2022-11-22T19:53:47.925Z,10.05
2022-11-22T19:56:18.954Z,6.90
2022-11-22T19:58:54.150Z,5.65
2022-11-22T20:01:23.107Z,4.45
2022-11-22T20:03:55.091Z,7.90
2022-11-22T20:06:22.386Z,7.75
2022-11-22T20:08:49.870Z,12.95
2022-11-22T20:11:19.427Z,10.88
2022-11-22T20:13:52.527Z,10.73
2022-11-22T20:16:25.685Z,10.18
2022-11-22T20:18:57.390Z,4.63
2022-11-22T20:21:33.665Z,8.38
2022-11-22T20:27:02.555Z,7.90
2022-11-22T20:29:29.835Z,8.63
2022-11-22T20:31:58.992Z,4.25
2022-11-22T20:34:29.294Z,5.22
2022-11-22T20:36:56.838Z,4.10
2022-11-22T20:39:24.153Z,8.38
2022-11-22T20:42:11.846Z,9.90
2022-11-22T20:44:38.904Z,15.38
2022-11-22T20:47:06.329Z,7.07
2022-11-22T20:49:33.395Z,8.45
2022-11-22T20:52:07.143Z,7.72
2022-11-22T20:54:34.475Z,9.43
2022-11-22T20:57:01.900Z,8.18
2022-11-22T20:59:36.626Z,8.20
2022-11-22T21:02:09.180Z,3.22
2022-11-22T21:04:37.109Z,7.60
2022-11-22T21:07:06.848Z,5.85
2022-11-22T21:09:34.338Z,6.10
2022-11-22T21:12:01.760Z,9.65
2022-11-22T21:14:29.432Z,3.88
2022-11-22T21:16:57.080Z,6.28
2022-11-22T21:19:25.062Z,4.88
2022-11-22T21:21:52.978Z,6.93
2022-11-22T21:24:20.325Z,4.40
2022-11-22T21:26:47.672Z,6.60
2022-11-22T21:29:16.749Z,10.88
2022-11-22T21:31:46.412Z,6.22
2022-11-22T21:34:13.824Z,4.97
2022-11-22T21:36:43.905Z,3.85
2022-11-22T21:39:11.470Z,6.13
2022-11-22T21:41:40.665Z,7.85
2022-11-22T21:44:09.540Z,7.55
2022-11-22T21:46:37.234Z,5.90
2022-11-22T21:49:05.604Z,6.65
2022-11-22T21:51:33.079Z,6.28
2022-11-22T21:54:01.481Z,11.13
2022-11-22T21:56:31.713Z,4.60
2022-11-22T22:01:26.580Z,5.63
2022-11-22T22:03:56.869Z,8.30
2022-11-22T22:06:26.547Z,2.42
2022-11-22T22:08:54.170Z,3.75
2022-11-22T22:11:21.678Z,4.63
2022-11-22T22:13:49.074Z,4.53
2022-11-22T22:16:19.016Z,5.85
2022-11-22T22:21:13.897Z,7.65
2022-11-22T22:23:42.197Z,4.55
2022-11-22T22:26:17.523Z,3.13
2022-11-22T22:28:47.805Z,2.53
2022-11-22T22:31:22.283Z,3.78
2022-11-22T22:33:59.540Z,4.18
2022-11-22T22:36:27.296Z,4.90
2022-11-22T22:38:55.241Z,4.75
2022-11-22T22:41:22.663Z,3.92
2022-11-22T22:43:50.074Z,6.05
2022-11-22T22:46:24.821Z,3.67
2022-11-22T22:48:54.849Z,5.05
2022-11-22T22:51:31.648Z,4.97
2022-11-22T22:54:02.446Z,5.15
2022-11-22T22:56:31.030Z,3.75
2022-11-22T22:59:01.020Z,8.80
2022-11-22T23:01:30.540Z,2.28
2022-11-22T23:04:00.001Z,7.72
2022-11-22T23:06:29.586Z,2.73
2022-11-22T23:08:57.266Z,2.35
2022-11-22T23:11:45.594Z,4.95
2022-11-22T23:14:14.431Z,1.98
2022-11-22T23:16:41.735Z,7.38
2022-11-22T23:19:09.214Z,3.35
2022-11-22T23:21:36.495Z,2.28
2022-11-22T23:24:04.082Z,1.80
2022-11-22T23:26:31.463Z,4.30
2022-11-22T23:28:59.135Z,2.60
2022-11-22T23:31:27.239Z,5.57
2022-11-22T23:33:54.724Z,7.07
2022-11-22T23:36:22.940Z,5.28
2022-11-22T23:38:52.986Z,4.40
2022-11-22T23:41:22.654Z,2.90
2022-11-22T23:43:54.760Z,6.47
2022-11-22T23:46:24.853Z,4.05
2022-11-22T23:48:57.435Z,2.50
2022-11-22T23:51:25.400Z,4.70
2022-11-22T23:54:00.795Z,5.65
2022-11-22T23:56:28.871Z,6.05
2022-11-22T23:58:56.246Z,3.17
